createdAt,value
2017-10-16T00:02:20.823Z,91.70
2017-10-16T00:05:22.803Z,91.70
2017-10-16T00:08:25.537Z,91.70
2017-10-16T00:11:28.326Z,91.70
2017-10-16T00:14:31.015Z,91.70
2017-10-16T00:17:33.215Z,91.70
2017-10-16T00:20:36.039Z,92.20
2017-10-16T00:23:38.098Z,91.90
2017-10-16T00:26:40.106Z,91.90
2017-10-16T00:29:42.074Z,92.10
2017-10-16T00:32:44.910Z,92.30
2017-10-16T00:35:46.891Z,92.30
2017-10-16T00:38:48.852Z,92.30
2017-10-16T00:41:51.697Z,92.40
2017-10-16T00:44:53.658Z,92.40
2017-10-16T00:47:55.745Z,92.40
2017-10-16T00:50:57.710Z,92.40
2017-10-16T00:53:59.681Z,92.30
2017-10-16T00:57:02.472Z,92.40
2017-10-16T01:00:05.190Z,92.40
2017-10-16T01:03:07.935Z,92.40
2017-10-16T01:06:09.989Z,92.40
2017-10-16T01:09:11.949Z,92.40
2017-10-16T01:12:14.845Z,92.40
2017-10-16T01:15:16.840Z,92.40
2017-10-16T01:18:19.535Z,92.60
2017-10-16T01:21:22.272Z,92.60
2017-10-16T01:24:24.214Z,92.50
2017-10-16T01:27:26.934Z,92.60
2017-10-16T01:30:29.629Z,92.70
2017-10-16T01:33:32.361Z,92.80
2017-10-16T01:36:34.325Z,92.70
2017-10-16T01:39:37.132Z,92.90
2017-10-16T01:42:39.099Z,92.90
2017-10-16T01:45:41.795Z,93.00
2017-10-16T01:48:44.521Z,93.00
2017-10-16T01:51:46.497Z,93.00
2017-10-16T01:54:48.439Z,93.00
2017-10-16T01:57:51.886Z,93.10
2017-10-16T02:00:54.617Z,93.10
2017-10-16T02:03:56.557Z,93.00
2017-10-16T02:06:59.271Z,93.10
2017-10-16T02:10:01.215Z,93.10
2017-10-16T02:13:03.927Z,93.10
2017-10-16T02:16:05.928Z,93.10
2017-10-16T02:19:07.916Z,93.10
2017-10-16T02:22:10.709Z,93.00
2017-10-16T02:25:13.497Z,93.00
2017-10-16T02:28:16.730Z,93.10
2017-10-16T02:31:19.542Z,93.10
2017-10-16T02:34:21.521Z,93.10
2017-10-16T02:37:23.491Z,93.10
2017-10-16T02:40:26.318Z,93.10
2017-10-16T02:43:29.157Z,93.10
2017-10-16T02:46:31.169Z,93.10
2017-10-16T02:49:33.971Z,93.20
2017-10-16T02:52:35.953Z,93.20
2017-10-16T02:55:37.960Z,93.20
2017-10-16T02:58:39.921Z,93.10
2017-10-16T03:01:43.515Z,93.00
2017-10-16T03:04:45.538Z,93.20
2017-10-16T03:07:48.366Z,93.20
2017-10-16T03:10:50.333Z,93.20
2017-10-16T03:13:53.139Z,93.30
2017-10-16T03:16:55.126Z,93.30
2017-10-16T03:19:57.147Z,93.30
2017-10-16T03:22:59.931Z,93.30
2017-10-16T03:26:01.878Z,93.30
2017-10-16T03:29:04.686Z,93.20
2017-10-16T03:32:07.522Z,93.20
2017-10-16T03:35:09.585Z,93.20
2017-10-16T03:38:11.565Z,93.20
2017-10-16T03:41:13.539Z,93.20
2017-10-16T03:44:16.562Z,93.40
2017-10-16T03:47:18.634Z,93.40
2017-10-16T03:50:21.417Z,93.40
2017-10-16T03:53:23.412Z,93.40
2017-10-16T03:56:26.234Z,93.30
2017-10-16T03:59:28.213Z,93.30
2017-10-16T04:02:30.304Z,93.30
2017-10-16T04:05:33.063Z,93.40
2017-10-16T04:08:35.111Z,93.40
2017-10-16T04:11:37.141Z,93.50
2017-10-16T04:14:39.202Z,93.50
2017-10-16T04:17:41.127Z,93.60
2017-10-16T04:20:43.918Z,93.50
2017-10-16T04:23:45.864Z,93.50
2017-10-16T04:26:47.994Z,93.80
2017-10-16T04:29:50.705Z,93.70
2017-10-16T04:32:53.525Z,93.80
2017-10-16T04:35:55.574Z,93.80
2017-10-16T04:38:57.582Z,93.90
2017-10-16T04:41:59.575Z,93.90
2017-10-16T04:45:01.646Z,94.00
2017-10-16T04:48:03.626Z,94.20
2017-10-16T04:51:06.541Z,94.40
2017-10-16T04:54:08.585Z,94.40
2017-10-16T04:57:11.399Z,94.70
2017-10-16T05:00:13.386Z,94.80
2017-10-16T05:03:15.342Z,95.00
2017-10-16T05:06:17.689Z,95.60
2017-10-16T05:09:19.780Z,95.30
2017-10-16T05:12:22.177Z,95.40
2017-10-16T05:15:24.125Z,95.40
2017-10-16T05:18:26.953Z,95.50
2017-10-16T05:21:28.971Z,95.50
2017-10-16T05:24:30.994Z,95.40
2017-10-16T05:27:33.701Z,95.10
2017-10-16T05:30:36.518Z,95.30
2017-10-16T05:33:38.475Z,95.30
2017-10-16T05:36:40.433Z,95.30
2017-10-16T05:39:42.441Z,95.20
2017-10-16T05:42:44.421Z,95.20
2017-10-16T05:45:46.415Z,95.20
2017-10-16T05:48:49.150Z,95.10
2017-10-16T05:51:51.114Z,95.10
2017-10-16T05:54:53.083Z,95.00
2017-10-16T05:57:55.885Z,94.90
2017-10-16T06:00:58.892Z,94.70
2017-10-16T06:04:01.726Z,94.60
2017-10-16T06:07:03.651Z,94.60
2017-10-16T06:10:05.781Z,94.40
2017-10-16T06:13:07.721Z,94.20
2017-10-16T06:16:09.671Z,94.10
2017-10-16T06:19:12.038Z,94.00
2017-10-16T06:22:14.009Z,93.90
2017-10-16T06:25:18.350Z,93.60
2017-10-16T06:28:21.053Z,93.50
2017-10-16T06:31:23.765Z,93.30
2017-10-16T06:34:25.718Z,93.30
2017-10-16T06:37:28.456Z,93.00
2017-10-16T06:40:30.447Z,93.10
2017-10-16T06:43:32.403Z,92.80
2017-10-16T06:46:34.374Z,92.60
2017-10-16T06:49:37.072Z,92.20
2017-10-16T06:52:39.889Z,91.90
2017-10-16T06:55:41.846Z,91.90
2017-10-16T06:58:44.579Z,91.20
2017-10-16T07:01:46.627Z,91.40
2017-10-16T07:04:48.563Z,91.10
2017-10-16T07:07:50.555Z,90.80
2017-10-16T07:10:52.605Z,90.50
2017-10-16T07:13:54.574Z,90.10
2017-10-16T07:16:57.378Z,89.00
2017-10-16T07:20:00.185Z,87.30
2017-10-16T07:23:02.915Z,85.80
2017-10-16T07:26:04.978Z,85.80
2017-10-16T07:29:06.942Z,83.30
2017-10-16T07:32:08.891Z,79.10
2017-10-16T07:35:10.905Z,75.70
2017-10-16T07:38:13.701Z,67.50
2017-10-16T07:41:15.694Z,67.30
2017-10-16T07:44:18.509Z,62.10
2017-10-16T07:47:21.308Z,59.60
2017-10-16T07:50:24.016Z,57.90
2017-10-16T07:53:25.974Z,57.90
2017-10-16T07:56:29.508Z,56.10
2017-10-16T07:59:32.195Z,54.70
2017-10-16T08:02:34.481Z,54.60
2017-10-16T08:05:36.487Z,53.50
2017-10-16T08:08:39.219Z,52.40
2017-10-16T08:11:41.231Z,52.30
2017-10-16T08:14:43.560Z,51.80
2017-10-16T08:17:46.357Z,50.30
2017-10-16T08:20:49.133Z,49.30
2017-10-16T08:23:51.060Z,49.30
2017-10-16T08:26:53.049Z,48.60
2017-10-16T08:29:54.975Z,47.50
2017-10-16T08:32:56.938Z,46.70
2017-10-16T08:35:58.906Z,45.70
2017-10-16T08:39:01.274Z,45.60
2017-10-16T08:42:03.967Z,45.60
2017-10-16T08:45:06.733Z,45.10
2017-10-16T08:48:08.696Z,45.00
2017-10-16T08:51:10.684Z,44.20
2017-10-16T08:54:13.246Z,43.90
2017-10-16T08:57:15.546Z,43.60
2017-10-16T09:00:18.295Z,42.40
2017-10-16T09:03:20.243Z,42.20
2017-10-16T09:06:22.178Z,41.00
2017-10-16T09:09:24.350Z,41.20
2017-10-16T09:12:27.071Z,41.00
2017-10-16T09:15:29.157Z,40.90
2017-10-16T09:18:31.870Z,42.60
2017-10-16T09:21:34.589Z,43.30
2017-10-16T09:24:36.541Z,43.20
2017-10-16T09:27:39.672Z,45.50
2017-10-16T09:30:41.656Z,45.40
2017-10-16T09:33:43.946Z,44.40
2017-10-16T09:36:45.904Z,41.90
2017-10-16T09:39:48.195Z,40.40
2017-10-16T09:42:50.192Z,39.70
2017-10-16T09:45:52.918Z,40.50
2017-10-16T09:48:55.025Z,40.40
2017-10-16T09:51:56.969Z,39.70
2017-10-16T09:54:59.763Z,37.00
2017-10-16T09:58:02.881Z,36.30
2017-10-16T10:01:05.598Z,36.40
2017-10-16T10:04:07.951Z,36.50
2017-10-16T10:07:09.954Z,39.60
2017-10-16T10:10:12.658Z,45.40
2017-10-16T10:13:14.583Z,45.40
2017-10-16T10:16:17.081Z,45.40
2017-10-16T10:19:19.015Z,43.50
2017-10-16T10:22:22.115Z,39.30
2017-10-16T10:25:24.822Z,38.20
2017-10-16T10:28:27.543Z,37.60
2017-10-16T10:31:29.594Z,37.60
2017-10-16T10:34:31.687Z,36.60
2017-10-16T10:37:33.897Z,36.30
2017-10-16T10:40:35.965Z,35.90
2017-10-16T10:43:38.657Z,36.20
2017-10-16T10:46:41.555Z,36.10
2017-10-16T10:49:44.255Z,33.60
2017-10-16T10:52:46.280Z,33.70
2017-10-16T10:55:48.203Z,33.50
2017-10-16T10:58:50.168Z,33.50
2017-10-16T11:01:52.922Z,33.50
2017-10-16T11:04:55.744Z,34.10
2017-10-16T11:07:57.707Z,34.10
2017-10-16T11:11:00.822Z,32.20
2017-10-16T11:14:03.519Z,31.10
2017-10-16T11:17:06.234Z,30.60
2017-10-16T11:20:08.949Z,31.20
2017-10-16T11:23:11.098Z,31.10
2017-10-16T11:26:13.196Z,31.40
2017-10-16T11:29:16.303Z,30.90
2017-10-16T11:32:18.246Z,30.90
2017-10-16T11:35:20.521Z,30.00
2017-10-16T11:38:23.071Z,29.70
2017-10-16T11:41:25.801Z,29.30
2017-10-16T11:44:27.752Z,28.60
2017-10-16T11:47:30.045Z,28.10
2017-10-16T11:50:32.177Z,27.60
2017-10-16T11:53:34.141Z,26.90
2017-10-16T11:56:36.078Z,26.70
2017-10-16T11:59:38.058Z,26.80
2017-10-16T12:02:40.171Z,26.70
2017-10-16T12:05:42.117Z,26.40
2017-10-16T12:08:44.041Z,26.70
2017-10-16T12:11:46.843Z,26.60
2017-10-16T12:14:49.574Z,26.00
2017-10-16T12:17:51.552Z,25.90
2017-10-16T12:20:53.497Z,25.80
2017-10-16T12:23:55.467Z,25.50
2017-10-16T12:26:57.394Z,25.80
2017-10-16T12:30:00.487Z,26.00
2017-10-16T12:33:03.194Z,26.30
2017-10-16T12:36:05.987Z,25.20
2017-10-16T12:39:08.896Z,26.20
2017-10-16T12:42:11.640Z,27.50
2017-10-16T12:45:13.585Z,27.50
2017-10-16T12:48:16.522Z,33.60
2017-10-16T12:51:18.473Z,33.50
2017-10-16T12:54:21.209Z,35.80
2017-10-16T12:57:23.175Z,35.80
2017-10-16T13:00:25.887Z,35.40
2017-10-16T13:03:27.819Z,35.40
2017-10-16T13:06:29.793Z,35.80
2017-10-16T13:09:31.725Z,34.40
2017-10-16T13:12:35.050Z,30.90
2017-10-16T13:15:37.173Z,30.90
2017-10-16T13:18:39.741Z,30.70
2017-10-16T13:21:41.670Z,32.40
2017-10-16T13:24:44.574Z,34.90
2017-10-16T13:27:46.514Z,33.40
2017-10-16T13:30:48.466Z,32.20
2017-10-16T13:33:50.405Z,31.80
2017-10-16T13:36:52.693Z,31.70
2017-10-16T13:39:54.650Z,32.50
2017-10-16T13:42:56.929Z,34.00
2017-10-16T13:45:59.928Z,35.20
2017-10-16T13:49:02.682Z,35.00
2017-10-16T13:52:04.630Z,35.00
2017-10-16T13:55:07.020Z,33.60
2017-10-16T13:58:09.054Z,33.20
2017-10-16T14:01:11.365Z,32.80
2017-10-16T14:04:13.314Z,32.70
2017-10-16T14:07:16.205Z,33.60
2017-10-16T14:10:18.130Z,36.30
2017-10-16T14:13:20.439Z,38.70
2017-10-16T14:16:24.086Z,42.70
2017-10-16T14:19:26.205Z,42.60
2017-10-16T14:22:28.134Z,44.70
2017-10-16T14:25:31.097Z,48.00
2017-10-16T14:28:33.023Z,48.00
2017-10-16T14:31:35.765Z,50.30
2017-10-16T14:34:37.706Z,50.20
2017-10-16T14:37:40.462Z,52.50
2017-10-16T14:40:42.386Z,51.80
2017-10-16T14:43:45.118Z,52.90
2017-10-16T14:46:47.087Z,52.80
2017-10-16T14:49:49.047Z,53.60
2017-10-16T14:52:51.766Z,54.50
2017-10-16T14:55:54.059Z,54.50
2017-10-16T14:58:55.993Z,55.10
2017-10-16T15:01:57.942Z,55.40
2017-10-16T15:04:59.883Z,56.00
2017-10-16T15:08:02.926Z,57.30
2017-10-16T15:11:04.842Z,57.20
2017-10-16T15:14:06.810Z,57.90
2017-10-16T15:17:08.758Z,58.50
2017-10-16T15:20:10.729Z,58.90
2017-10-16T15:23:13.461Z,59.90
2017-10-16T15:26:15.496Z,59.90
2017-10-16T15:29:17.445Z,61.00
2017-10-16T15:32:19.397Z,61.50
2017-10-16T15:35:21.346Z,62.10
2017-10-16T15:38:23.645Z,62.60
2017-10-16T15:41:26.334Z,63.60
2017-10-16T15:44:28.313Z,63.60
2017-10-16T15:47:30.273Z,64.20
2017-10-16T15:50:32.266Z,64.90
2017-10-16T15:53:34.226Z,65.30
2017-10-16T15:56:36.177Z,65.90
2017-10-16T15:59:38.598Z,66.80
2017-10-16T16:02:40.558Z,67.70
2017-10-16T16:05:42.521Z,68.80
2017-10-16T16:08:45.631Z,70.90
2017-10-16T16:11:48.356Z,72.80
2017-10-16T16:14:50.319Z,72.00
2017-10-16T16:17:53.033Z,73.50
2017-10-16T16:20:55.365Z,73.40
2017-10-16T16:23:57.310Z,74.00
2017-10-16T16:27:00.139Z,74.50
2017-10-16T16:30:02.103Z,75.20
2017-10-16T16:33:04.073Z,75.70
2017-10-16T16:36:06.004Z,76.30
2017-10-16T16:39:07.951Z,77.00
2017-10-16T16:42:09.887Z,77.70
2017-10-16T16:45:11.834Z,78.30
2017-10-16T16:48:13.779Z,78.70
2017-10-16T16:51:15.881Z,79.00
2017-10-16T16:54:17.853Z,79.10
2017-10-16T16:57:19.876Z,79.20
2017-10-16T17:00:21.835Z,79.30
2017-10-16T17:03:23.911Z,79.60
2017-10-16T17:06:25.859Z,79.70
2017-10-16T17:09:29.394Z,80.40
2017-10-16T17:12:32.125Z,80.50
2017-10-16T17:15:34.488Z,80.50
2017-10-16T17:18:37.297Z,80.80
2017-10-16T17:21:40.040Z,81.00
2017-10-16T17:24:41.982Z,81.00
2017-10-16T17:27:45.280Z,81.00
2017-10-16T17:30:47.218Z,81.00
2017-10-16T17:33:49.188Z,80.90
2017-10-16T17:36:51.127Z,81.00
2017-10-16T17:39:53.427Z,81.20
2017-10-16T17:42:56.146Z,81.90
2017-10-16T17:45:58.113Z,81.80
2017-10-16T17:49:00.811Z,82.60
2017-10-16T17:52:03.829Z,83.00
2017-10-16T17:55:05.862Z,82.90
2017-10-16T17:58:07.886Z,83.50
2017-10-16T18:01:10.612Z,84.10
2017-10-16T18:04:12.992Z,84.10
2017-10-16T18:07:15.683Z,84.30
2017-10-16T18:10:18.433Z,85.20
2017-10-16T18:13:25.261Z,84.60
2017-10-16T18:16:27.694Z,84.50
2017-10-16T18:19:30.425Z,85.00
2017-10-16T18:22:33.494Z,85.00
2017-10-16T18:25:36.217Z,85.50
2017-10-16T18:28:38.601Z,85.50
2017-10-16T18:31:40.537Z,85.50
2017-10-16T18:34:42.522Z,85.50
2017-10-16T18:37:44.497Z,85.70
2017-10-16T18:40:47.349Z,85.80
2017-10-16T18:43:50.065Z,86.00
2017-10-16T18:46:52.450Z,85.80
2017-10-16T18:49:54.421Z,86.10
2017-10-16T18:52:57.561Z,86.30
2017-10-16T18:56:00.105Z,86.30
2017-10-16T18:59:04.005Z,86.20
2017-10-16T19:02:05.940Z,86.20
2017-10-16T19:05:09.061Z,86.80
2017-10-16T19:08:11.749Z,87.00
2017-10-16T19:11:13.738Z,87.00
2017-10-16T19:14:16.469Z,87.30
2017-10-16T19:17:18.495Z,87.20
2017-10-16T19:20:20.442Z,87.30
2017-10-16T19:23:22.408Z,87.40
2017-10-16T19:26:25.302Z,87.70
2017-10-16T19:29:28.079Z,87.90
2017-10-16T19:32:30.813Z,88.00
2017-10-16T19:35:34.370Z,88.10
2017-10-16T19:38:36.331Z,88.80
2017-10-16T19:41:38.865Z,88.20
2017-10-16T19:44:40.814Z,88.20
2017-10-16T19:47:43.086Z,88.30
2017-10-16T19:50:45.880Z,88.90
2017-10-16T19:53:48.617Z,88.30
2017-10-16T19:56:50.567Z,88.20
2017-10-16T19:59:53.625Z,88.20
2017-10-16T20:02:55.645Z,88.20
2017-10-16T20:05:57.607Z,88.30
2017-10-16T20:08:59.727Z,88.30
2017-10-16T20:12:02.478Z,88.20
2017-10-16T20:15:04.425Z,88.20
2017-10-16T20:18:07.486Z,88.10
2017-10-16T20:21:09.430Z,88.10
2017-10-16T20:24:11.421Z,88.10
2017-10-16T20:27:13.345Z,88.20
2017-10-16T20:30:15.337Z,88.40
2017-10-16T20:33:17.274Z,88.50
2017-10-16T20:36:19.260Z,88.70
2017-10-16T20:39:21.218Z,89.00
2017-10-16T20:42:23.955Z,89.10
2017-10-16T20:45:25.934Z,89.10
2017-10-16T20:48:27.981Z,89.20
2017-10-16T20:51:30.806Z,89.50
2017-10-16T20:54:33.235Z,89.50
2017-10-16T20:57:35.162Z,89.30
2017-10-16T21:00:37.898Z,89.40
2017-10-16T21:03:39.847Z,89.40
2017-10-16T21:06:42.945Z,89.30
2017-10-16T21:09:44.879Z,89.40
2017-10-16T21:12:46.834Z,89.00
2017-10-16T21:15:48.766Z,89.70
2017-10-16T21:18:50.735Z,89.80
2017-10-16T21:21:52.761Z,90.00
2017-10-16T21:24:54.723Z,90.00
2017-10-16T21:27:56.653Z,90.00
2017-10-16T21:30:58.613Z,90.10
2017-10-16T21:34:01.324Z,90.00
2017-10-16T21:37:04.445Z,90.10
2017-10-16T21:40:06.542Z,90.10
2017-10-16T21:43:08.517Z,90.10
2017-10-16T21:46:10.454Z,90.10
2017-10-16T21:49:12.426Z,90.20
2017-10-16T21:52:14.386Z,90.10
2017-10-16T21:55:16.368Z,90.00
2017-10-16T21:58:18.328Z,90.00
2017-10-16T22:01:20.385Z,90.00
2017-10-16T22:04:23.102Z,90.10
2017-10-16T22:07:25.953Z,90.00
2017-10-16T22:10:27.906Z,90.00
2017-10-16T22:13:29.958Z,89.90
2017-10-16T22:16:31.881Z,90.00
2017-10-16T22:19:34.173Z,90.20
2017-10-16T22:22:36.159Z,89.90
2017-10-16T22:25:38.112Z,90.00
2017-10-16T22:28:40.802Z,89.60
2017-10-16T22:31:43.518Z,89.60
2017-10-16T22:34:45.446Z,89.60
2017-10-16T22:37:47.771Z,89.40
2017-10-16T22:40:49.801Z,89.10
2017-10-16T22:43:51.765Z,89.10
2017-10-16T22:46:53.797Z,88.80
2017-10-16T22:49:55.783Z,88.30
2017-10-16T22:52:57.775Z,88.10
2017-10-16T22:55:59.742Z,88.10
2017-10-16T22:59:01.684Z,87.90
2017-10-16T23:02:04.050Z,87.40
2017-10-16T23:05:06.774Z,86.70
2017-10-16T23:08:08.761Z,86.70
2017-10-16T23:11:10.725Z,86.20
2017-10-16T23:14:13.514Z,85.90
2017-10-16T23:17:16.281Z,85.80
2017-10-16T23:20:18.226Z,85.70
2017-10-16T23:23:20.162Z,85.40
2017-10-16T23:26:22.109Z,85.10
2017-10-16T23:29:24.047Z,84.70
2017-10-16T23:32:27.166Z,85.00
2017-10-16T23:35:29.896Z,85.20
2017-10-16T23:38:32.038Z,85.30
2017-10-16T23:41:34.739Z,85.10
2017-10-16T23:44:37.474Z,85.70
2017-10-16T23:47:39.424Z,85.00
2017-10-16T23:50:42.522Z,85.00
2017-10-16T23:53:45.266Z,85.10
2017-10-16T23:56:47.915Z,85.10
2017-10-16T23:59:49.927Z,85.20
